This is the latest recevied weather packets stored in our database for station/object Oberstadn. If no packets are shown the sender has not sent any weather packets the latest 10 day(s).
| Time | Temp. | Humidity | Pressure | Rain* | Wind** | Luminosity | Snow |
|---|---|---|---|---|---|---|---|
| 1777611731 | 1.67° C | 69% | 1027 hPa | 0 mm | - | - | - |
| 1777609931 | 0.56° C | 72% | 1027 hPa | 0 mm | - | - | - |
| 1777608131 | 0.56° C | 72% | 1026.8 hPa | 0 mm | - | - | - |
| 1777606332 | 1.67° C | 66% | 1026.7 hPa | 0 mm | - | - | - |
| 1777604532 | 2.22° C | 65% | 1026.8 hPa | 0 mm | - | - | - |
| 1777602733 | 2.78° C | 63% | 1026.8 hPa | 0 mm | - | - | - |
| 1777600931 | 3.33° C | 61% | 1026.8 hPa | 0 mm | - | - | - |
| 1777599131 | 3.89° C | 60% | 1026.9 hPa | 0 mm | - | - | - |
| 1777597332 | 4.44° C | 58% | 1026.8 hPa | 0 mm | - | - | - |
| 1777595529 | 4.44° C | 57% | 1026.9 hPa | 0 mm | - | - | - |
| 1777593730 | 5° C | 54% | 1026.8 hPa | 0 mm | - | - | - |
| 1777591929 | 5.56° C | 51% | 1026.7 hPa | 0 mm | - | - | - |
| 1777590129 | 7.22° C | 44% | 1026.7 hPa | 0 mm | - | - | - |
| 1777588329 | 7.78° C | 41% | 1026.5 hPa | 0 mm | - | - | - |
| 1777586529 | 7.78° C | 41% | 1026.7 hPa | 0 mm | - | - | - |
| 1777584729 | 8.33° C | 40% | 1026.6 hPa | 0 mm | - | - | - |
| 1777582929 | 8.89° C | 39% | 1026.5 hPa | 0 mm | - | - | - |
| 1777581135 | 9.44° C | 38% | 1026.5 hPa | 0 mm | - | - | - |
| 1777579329 | 9.44° C | 37% | 1026.3 hPa | 0 mm | - | - | - |
| 1777577529 | 10° C | 35% | 1025.9 hPa | 0 mm | - | - | - |
| 1777575735 | 10.56° C | 32% | 1025.9 hPa | 0 mm | - | - | - |
| 1777573930 | 11.67° C | 32% | 1025.5 hPa | 0 mm | - | - | - |
| 1777572132 | 12.78° C | 27% | 1025.5 hPa | 0 mm | - | - | - |
| 1777570330 | 13.33° C | 25% | 1025.2 hPa | 0 mm | - | - | - |
| 1777568531 | 14.44° C | 26% | 1025.2 hPa | 0 mm | - | - | - |
* Rain since midnight (hover to see other rain measurements)
** Current wind speed in m/s (hover to see current wind gust speed)